Tuesday, January 16, 2018, 6:53 AM EST
Back to Local

KMIV, Millville Municipal Airport

Location: Millville, NJ, United States Lat: 39.367
Local Time: 6:53 AM EST (11:53 GMT) Lon: -75.083
Time Zone: US/Eastern Elev: 85 ft

Show me the last for .
Show Coded

Time T Td Feel RH Dir Speed Gust Alt SLP Vis Weather Sky Remarks
2018-01-16 06:04 29 27 25 92 90° 3 - 30.48 - 10 OVC029 None
2018-01-16 05:54 29 27 24 92 70° 5 - 30.47 30.47 10 SCT023 OVC031 None
2018-01-16 05:49 28 27 25 92 60° 3 - 30.48 - 10 SCT023 OVC031 None
2018-01-16 05:18 29 27 24 92 60° 5 - 30.47 - 10 BKN028 OVC032 None
2018-01-16 04:54 29 27 25 92 60° 3 - 30.46 30.46 10 OVC031 None
2018-01-16 04:47 29 26 24 88 50° 5 - 30.46 - 10 BKN031 None
2018-01-16 04:37 29 27 24 92 40° 5 - 30.45 - 10 OVC029 None
2018-01-16 03:54 29 27 23 92 30° 6 - 30.47 30.46 10 OVC031 None
2018-01-16 02:54 28 26 23 92 20° 5 - 30.46 30.45 10 OVC031 None
2018-01-16 02:36 28 26 24 92 360° 3 - 30.46 - 10 BKN031 None
2018-01-16 02:26 27 26 22 96 350° 5 - 30.46 - 10 BKN029 None
2018-01-16 02:16 28 26 24 92 360° 3 - 30.46 - 10 SCT029 None
2018-01-16 01:54 28 26 22 92 20° 6 - 30.46 30.45 10 BKN029 None
2018-01-16 00:54 28 26 21 92 360° 7 - 30.47 30.46 10 OVC018 6-hr Min Temp (1am): 21.9°F
6-hr Max Temp (1am): 30.9°F
2018-01-15 23:54 26 26 - 100 - Calm - 30.47 30.47 10 OVC017 24-hr Min Temp (12am): 14.0°F
24-hr Max Temp (12am): 36.0°F
2018-01-15 23:20 23 23 - 100 - Calm - 30.47 - 10 BKN018 None
2018-01-15 22:54 23 22 18 95 260° 3 - 30.49 30.48 10 FEW016 None
2018-01-15 22:22 25 25 - 100 - Calm - 30.48 - 10 BKN016 None
2018-01-15 21:54 24 23 - 95 - Calm - 30.49 30.48 10 SCT044 None
2018-01-15 20:54 28 25 - 88 - Calm - 30.49 30.49 10 BKN045 None
2018-01-15 19:54 30 27 22 88 40° 8 - 30.49 30.49 10 FEW015 OVC047 None
2018-01-15 19:45 31 27 23 85 50° 8 - 30.49 - 10 SCT015 OVC048 None
2018-01-15 18:54 31 27 26 85 70° 5 - 30.49 30.49 10 OVC014 6-hr Min Temp (7pm): 30.9°F
6-hr Max Temp (7pm): 36.0°F
2018-01-15 17:54 31 26 24 81 70° 7 - 30.49 30.49 10 OVC017 None
2018-01-15 16:54 32 26 26 78 70° 7 - 30.49 30.49 10 BKN021 OVC045 None
2018-01-15 15:54 33 26 27 75 80° 7 - 30.48 30.48 10 BKN021 OVC044 None
2018-01-15 15:44 33 26 25 75 50° 9 - 30.47 - 10 SCT021 OVC044 None
2018-01-15 14:54 34 27 26 75 40° 10 - 30.48 30.47 10 BKN021 OVC045 None
2018-01-15 14:43 34 26 27 72 30° 9 - 30.48 - 10 BKN022 OVC046 None
2018-01-15 14:13 35 27 27 72 40° 10 - 30.47 - 10 SCT023 OVC048 None
2018-01-15 13:54 35 27 27 72 50° 10 - 30.47 30.47 10 BKN023 OVC050 None
2018-01-15 13:06 36 27 25 69 40° 12 21 30.48 - 10 BKN024 OVC046 None
2018-01-15 12:54 36 27 25 69 70° 13 20 30.49 30.48 10 SCT023 OVC046 6-hr Min Temp (1pm): 19.9°F
6-hr Max Temp (1pm): 36.0°F
2018-01-15 12:51 36 27 25 69 60° 12 20 30.49 - 10 SCT021 OVC047 None
2018-01-15 11:54 32 24 25 72 40° 8 - 30.53 30.53 10 OVC019 None
2018-01-15 10:54 30 22 22 71 40° 8 - 30.56 30.56 10 OVC015 None
2018-01-15 09:54 26 19 15 74 30° 13 - 30.57 30.57 10 OVC015 None
2018-01-15 09:34 25 18 14 74 30° 13 - 30.58 - 10 OVC015 None
2018-01-15 08:54 23 16 13 74 30° 9 - 30.58 30.58 10 OVC013 None
2018-01-15 07:54 21 13 11 70 20° 9 - 30.58 30.57 10 OVC013 None
2018-01-15 06:54 20 11 9 67 30° 10 - 30.58 30.58 10 OVC013 6-hr Min Temp (7am): 15.1°F
6-hr Max Temp (7am): 19.9°F

Support USWX by starting your Amazon purchase here.